Time;durP1;ratioP1;P1;durP2;ratioP2;P2;SDS_P1;SDS_P2;PMS_P1;PMS_P2;Temp;Humidity;BMP_temperature;BMP_pressure;BME280_temperature;BME280_humidity;BME280_pressure;Samples;Min_cycle;Max_cycle;Signal;HPM_P1;HPM_P2
2022/07/21 00:01:34;;;;;;;12.35;4.28;;;;;;;21.70;58.65;99231.59;10316811;28;20046;-77
2022/07/21 00:06:36;;;;;;;11.23;4.88;;;;;;;21.52;58.80;99174.84;10316724;28;20526;-75
2022/07/21 00:11:38;;;;;;;11.27;4.45;;;;;;;21.43;59.26;99153.16;10313909;28;20052;-77
2022/07/21 00:16:41;;;;;;;10.95;4.50;;;;;;;21.41;59.52;99158.56;10377232;28;20053;-76
2022/07/21 00:21:43;;;;;;;8.90;3.85;;;;;;;21.44;59.47;99178.81;10315673;28;20043;-76
2022/07/21 00:26:45;;;;;;;8.80;4.22;;;;;;;21.46;59.82;99209.75;10372113;28;20475;-75
2022/07/21 00:31:47;;;;;;;10.23;4.43;;;;;;;21.43;59.94;99201.09;10363019;28;20099;-77
2022/07/21 00:36:48;;;;;;;13.00;5.43;;;;;;;21.14;60.24;99100.53;10319595;28;20149;-76
2022/07/21 00:41:50;;;;;;;17.92;5.80;;;;;;;21.04;60.75;99082.50;10306522;28;20130;-75
2022/07/21 00:46:54;;;;;;;13.75;6.18;;;;;;;19.67;60.84;98551.22;10319499;28;20414;-85
2022/07/21 00:52:01;;;;;;;13.52;5.57;;;;;;;18.84;61.36;98235.72;10345749;28;20046;-83
2022/07/21 00:57:06;;;;;;;21.48;7.00;;;;;;;18.55;61.58;98143.72;10378200;28;20046;-84
2022/07/21 01:02:09;;;;;;;18.65;6.57;;;;;;;18.57;62.06;98171.91;10389047;28;20044;-83
2022/07/21 01:07:12;;;;;;;15.15;5.03;;;;;;;18.47;62.27;98145.09;10309712;28;20035;-83
2022/07/21 01:12:14;;;;;;;14.15;5.15;;;;;;;18.42;62.75;98150.66;10306825;28;20070;-85
2022/07/21 01:17:17;;;;;;;14.80;4.50;;;;;;;18.35;63.30;98139.53;10308083;28;20054;-84
2022/07/21 01:22:19;;;;;;;13.55;5.00;;;;;;;18.29;63.69;98137.25;10378941;28;20548;-85
2022/07/21 01:27:28;;;;;;;11.33;4.40;;;;;;;18.26;64.17;98141.88;10352547;28;20061;-85
2022/07/21 01:32:46;;;;;;;9.52;3.83;;;;;;;18.19;64.85;98133.41;10310518;28;20133;-85
2022/07/21 01:37:49;;;;;;;12.82;4.07;;;;;;;18.10;65.20;98116.22;10383317;28;20043;-86
2022/07/21 01:42:52;;;;;;;9.77;3.38;;;;;;;18.07;65.64;98121.72;10382943;28;20052;-84
2022/07/21 01:48:18;;;;;;;11.32;3.35;;;;;;;18.05;66.14;98128.03;10358958;28;20043;-86
2022/07/21 01:53:23;;;;;;;8.65;3.47;;;;;;;18.13;66.35;98184.91;10362200;28;20052;-87
2022/07/21 01:58:39;;;;;;;12.35;3.42;;;;;;;18.17;67.08;98212.09;10418790;28;20107;-86
2022/07/21 02:04:01;;;;;;;6.38;3.47;;;;;;;18.26;67.65;98272.50;10380013;28;20043;-86
2022/07/21 02:09:04;;;;;;;9.60;3.20;;;;;;;18.20;67.87;98260.44;10307815;28;20046;-87
2022/07/21 02:14:05;;;;;;;10.15;3.78;;;;;;;18.17;68.14;98271.19;10381095;28;20053;-85
2022/07/21 02:19:10;;;;;;;8.75;3.35;;;;;;;18.09;68.91;98249.59;10306384;28;20042;-87
2022/07/21 02:24:12;;;;;;;11.48;4.28;;;;;;;18.04;68.85;98248.97;10383787;28;20530;-85
2022/07/21 02:29:16;;;;;;;11.45;4.20;;;;;;;18.07;69.58;98269.13;10382320;28;20035;-88
2022/07/21 02:34:18;;;;;;;8.88;4.32;;;;;;;18.16;69.95;98322.44;10396035;28;20556;-85
2022/07/21 02:39:23;;;;;;;11.25;5.20;;;;;;;18.11;70.38;98321.84;10318848;28;20448;-87
2022/07/21 02:44:24;;;;;;;10.68;4.88;;;;;;;18.10;70.61;98336.00;10327752;28;20193;-86
2022/07/21 02:49:31;;;;;;;11.45;5.43;;;;;;;18.14;71.06;98356.09;10315429;28;20469;-85
2022/07/21 02:54:38;;;;;;;13.63;5.47;;;;;;;18.12;71.19;98373.88;10314938;28;20050;-85
2022/07/21 02:59:43;;;;;;;10.23;5.65;;;;;;;18.17;71.60;98397.47;10376742;28;20039;-82
2022/07/21 03:04:45;;;;;;;10.90;6.05;;;;;;;18.20;72.25;98439.69;10315244;28;20146;-84
2022/07/21 03:09:47;;;;;;;10.88;6.20;;;;;;;18.15;72.45;98428.47;10369716;28;20047;-84
2022/07/21 03:15:05;;;;;;;13.10;6.63;;;;;;;18.12;72.64;98437.44;10398323;28;20141;-84
2022/07/21 03:20:24;;;;;;;12.45;5.82;;;;;;;18.21;73.03;98478.50;10329330;28;20555;-85
2022/07/21 03:25:45;;;;;;;13.88;6.70;;;;;;;18.34;73.58;98542.28;10380057;28;20053;-84
2022/07/21 03:30:47;;;;;;;14.30;5.78;;;;;;;18.38;73.92;98576.50;10313891;28;20062;-84
2022/07/21 03:35:49;;;;;;;13.05;6.40;;;;;;;18.40;74.01;98594.13;10365777;28;20541;-84
2022/07/21 03:41:25;;;;;;;11.68;6.10;;;;;;;18.35;74.30;98592.53;10371138;28;20125;-85
2022/07/21 03:46:50;;;;;;;12.40;6.50;;;;;;;18.35;74.76;98597.00;10318470;28;20050;-84
2022/07/21 03:51:57;;;;;;;12.00;6.63;;;;;;;18.24;74.99;98571.03;10366267;28;20050;-81
2022/07/21 03:56:58;;;;;;;15.35;6.63;;;;;;;18.29;75.31;98592.00;10312648;28;20489;-82
2022/07/21 04:02:00;;;;;;;17.33;7.38;;;;;;;18.18;75.67;98572.19;10375044;28;20468;-84
2022/07/21 04:07:02;;;;;;;12.77;6.70;;;;;;;18.11;75.94;98557.53;10305276;28;20080;-83
2022/07/21 04:12:05;;;;;;;13.95;7.95;;;;;;;18.12;76.17;98563.69;10307692;28;20518;-85
2022/07/21 04:17:10;;;;;;;14.00;7.60;;;;;;;18.04;76.37;98547.31;10310770;28;20516;-85
2022/07/21 04:22:27;;;;;;;15.88;7.70;;;;;;;18.09;76.49;98585.00;10361600;28;20046;-85
2022/07/21 04:28:15;;;;;;;15.32;7.70;;;;;;;18.04;76.91;98572.00;10391507;28;20084;-84
2022/07/21 04:33:31;;;;;;;14.90;8.30;;;;;;;18.00;77.19;98562.53;10428510;28;20525;-86
2022/07/21 04:38:49;;;;;;;16.30;8.52;;;;;;;18.04;77.53;98595.84;10409140;28;20129;-85
2022/07/21 04:44:05;;;;;;;16.77;9.15;;;;;;;18.12;77.58;98640.47;10358651;28;20062;-84
2022/07/21 04:49:14;;;;;;;17.85;9.13;;;;;;;18.22;77.76;98696.53;10356471;28;20042;-85
2022/07/21 04:54:36;;;;;;;15.18;9.15;;;;;;;18.15;78.20;98686.22;10370749;28;20100;-85
2022/07/21 04:59:58;;;;;;;15.25;9.73;;;;;;;18.25;78.47;98730.81;10363493;28;20047;-86
2022/07/21 05:05:08;;;;;;;16.15;9.95;;;;;;;18.34;78.74;98781.56;10480659;28;20047;-85
2022/07/21 05:10:17;;;;;;;19.73;9.82;;;;;;;18.36;78.71;98797.41;10478101;28;20118;-85
2022/07/21 05:15:19;;;;;;;16.50;10.45;;;;;;;18.44;79.07;98840.31;10457238;28;20482;-85
2022/07/21 05:20:26;;;;;;;18.50;10.27;;;;;;;18.50;79.41;98870.97;10488246;28;20127;-86
2022/07/21 05:25:29;;;;;;;17.98;11.13;;;;;;;18.61;79.65;98936.72;10487507;28;20045;-86
2022/07/21 05:30:30;;;;;;;17.70;10.60;;;;;;;18.61;79.97;98944.69;10491226;28;20553;-85
2022/07/21 05:35:33;;;;;;;20.60;11.20;;;;;;;18.68;79.79;98992.03;10517573;28;20041;-84
2022/07/21 05:40:35;;;;;;;19.77;11.07;;;;;;;18.63;80.21;98971.97;10498705;28;20043;-85
2022/07/21 05:45:36;;;;;;;18.73;10.80;;;;;;;18.55;80.74;98948.47;10493957;28;20051;-90
2022/07/21 05:50:38;;;;;;;21.33;11.10;;;;;;;18.49;80.59;98928.38;10490055;28;20128;-85
2022/07/21 05:55:39;;;;;;;18.73;12.10;;;;;;;18.51;80.58;98950.41;10483400;28;20036;-85
2022/07/21 06:00:41;;;;;;;19.65;12.15;;;;;;;18.44;81.12;98925.09;10477831;28;20472;-86
2022/07/21 06:05:43;;;;;;;21.77;13.45;;;;;;;18.42;81.15;98923.44;10476019;28;20045;-87
2022/07/21 06:10:44;;;;;;;22.58;13.00;;;;;;;18.27;81.45;98880.81;10495304;28;20037;-85
2022/07/21 06:15:46;;;;;;;23.83;14.88;;;;;;;18.23;81.51;98868.63;10515156;28;20044;-85
2022/07/21 06:20:48;;;;;;;23.33;13.85;;;;;;;18.23;81.84;98881.88;10503483;28;20260;-85
2022/07/21 06:25:51;;;;;;;24.42;14.02;;;;;;;18.24;81.85;98891.56;10510180;28;20037;-85
2022/07/21 06:30:53;;;;;;;18.95;13.88;;;;;;;18.23;82.18;98900.44;10489164;28;20040;-87
2022/07/21 06:36:06;;;;;;;25.05;14.73;;;;;;;18.20;82.35;98895.25;10514561;28;20043;-83
2022/07/21 06:41:18;;;;;;;24.10;14.23;;;;;;;18.20;82.25;98906.72;10486050;28;20054;-85
2022/07/21 06:46:20;;;;;;;19.25;13.77;;;;;;;18.23;82.36;98926.91;10499377;28;20434;-85
2022/07/21 06:51:21;;;;;;;25.25;14.85;;;;;;;18.30;82.85;98965.47;10505608;28;20040;-86
2022/07/21 06:56:28;;;;;;;24.70;15.35;;;;;;;18.52;82.95;99067.84;10474614;28;20097;-86
2022/07/21 07:01:30;;;;;;;25.05;15.43;;;;;;;18.66;83.04;99134.41;10510300;28;20071;-87
2022/07/21 07:06:32;;;;;;;22.10;14.63;;;;;;;18.69;83.21;99149.28;10504411;28;20520;-86
2022/07/21 07:11:34;;;;;;;20.38;15.10;;;;;;;18.76;83.56;99197.63;10474995;28;20147;-86
2022/07/21 07:16:36;;;;;;;21.55;14.45;;;;;;;18.83;83.86;99231.78;10483448;28;20097;-85
2022/07/21 07:21:45;;;;;;;22.77;13.63;;;;;;;18.85;83.74;99247.63;10491534;28;20569;-85
2022/07/21 07:27:04;;;;;;;25.65;14.27;;;;;;;18.95;84.18;99301.19;10506235;28;20119;-85
2022/07/21 07:32:30;;;;;;;18.83;12.68;;;;;;;18.92;84.36;99294.22;10464982;28;20055;-86
2022/07/21 07:37:46;;;;;;;21.23;14.80;;;;;;;18.79;84.46;99255.84;10475366;28;20052;-86
2022/07/21 07:42:55;;;;;;;20.58;13.50;;;;;;;18.65;84.50;99198.09;10451840;28;20036;-85
2022/07/21 07:48:19;;;;;;;24.60;12.88;;;;;;;18.60;84.68;99184.16;10475596;28;20055;-85
2022/07/21 07:53:27;;;;;;;17.92;12.52;;;;;;;18.59;84.52;99193.91;10490883;28;20036;-85
2022/07/21 07:58:32;;;;;;;15.45;10.85;;;;;;;18.63;84.87;99215.84;10503200;28;20072;-84
2022/07/21 08:03:36;;;;;;;14.77;10.25;;;;;;;18.74;84.82;99261.34;10480320;28;20072;-85
2022/07/21 08:08:39;;;;;;;14.00;9.73;;;;;;;18.86;84.93;99329.81;10498493;28;20048;-85
2022/07/21 08:13:40;;;;;;;15.95;10.35;;;;;;;18.94;85.14;99363.13;10487999;28;20544;-86
2022/07/21 08:18:43;;;;;;;15.75;10.43;;;;;;;19.02;85.00;99406.09;10489883;28;20037;-86
2022/07/21 08:23:49;;;;;;;13.45;9.10;;;;;;;19.00;84.92;99403.50;10505394;28;20044;-85
2022/07/21 08:28:54;;;;;;;13.98;8.88;;;;;;;19.02;85.51;99425.56;10484522;28;20511;-84
2022/07/21 08:33:55;;;;;;;12.77;8.90;;;;;;;19.04;85.43;99446.72;10516309;28;20591;-86
2022/07/21 08:38:57;;;;;;;15.60;9.18;;;;;;;19.02;85.53;99435.28;10515249;28;20151;-85
2022/07/21 08:43:59;;;;;;;13.63;9.18;;;;;;;19.12;85.63;99500.31;10486051;28;20040;-85
2022/07/21 08:49:02;;;;;;;14.88;10.15;;;;;;;19.17;85.96;99514.28;10483016;28;20084;-86
2022/07/21 08:54:04;;;;;;;13.13;9.35;;;;;;;19.25;86.23;99570.56;10494676;28;20036;-85
2022/07/21 08:59:06;;;;;;;14.20;9.20;;;;;;;19.33;86.38;99602.13;10508935;28;20048;-86
2022/07/21 09:04:26;;;;;;;12.00;7.95;;;;;;;19.48;86.41;99676.78;10486576;28;20032;-87
2022/07/21 09:09:30;;;;;;;13.05;8.55;;;;;;;19.60;86.39;99732.94;10486314;28;20516;-86
2022/07/21 09:14:34;;;;;;;12.48;8.63;;;;;;;19.65;86.67;99750.50;10510473;28;20037;-85
2022/07/21 09:19:44;;;;;;;15.63;9.20;;;;;;;19.74;86.85;99800.63;10492960;28;20123;-86
2022/07/21 09:24:49;;;;;;;11.57;8.82;;;;;;;19.87;87.00;99865.69;10480245;28;20066;-83
2022/07/21 09:29:53;;;;;;;13.25;8.45;;;;;;;20.09;86.75;99963.25;10511588;28;20584;-82
2022/07/21 09:34:58;;;;;;;12.93;8.80;;;;;;;20.36;87.14;100089.00;10504179;28;20045;-85
2022/07/21 09:40:09;;;;;;;13.98;9.15;;;;;;;21.03;87.37;100385.59;10486840;28;20058;-84
2022/07/21 09:45:14;;;;;;;14.63;10.50;;;;;;;21.06;87.13;100395.28;10492657;28;20071;-85
2022/07/21 09:50:17;;;;;;;17.17;9.00;;;;;;;21.84;87.23;100754.22;10487749;28;20046;-86
2022/07/21 09:55:28;;;;;;;13.30;8.52;;;;;;;21.89;87.26;100765.63;10500917;28;20048;-86
2022/07/21 10:00:33;;;;;;;12.18;8.18;;;;;;;21.74;87.13;100691.44;10508275;28;20102;-85
2022/07/21 10:05:37;;;;;;;11.00;7.07;;;;;;;21.88;87.15;100764.72;10496787;28;20048;-86
2022/07/21 10:10:45;;;;;;;11.85;7.93;;;;;;;22.64;87.07;101095.06;10488738;28;20032;-84
2022/07/21 10:16:10;;;;;;;12.68;7.93;;;;;;;22.55;86.78;101051.72;10483561;28;20071;-83
2022/07/21 10:21:40;;;;;;;16.58;8.75;;;;;;;22.22;86.58;100901.50;10510034;28;20071;-84
2022/07/21 10:27:08;;;;;;;13.23;8.05;;;;;;;22.28;86.44;100917.31;10506782;28;20141;-84
2022/07/21 10:32:11;;;;;;;12.40;9.05;;;;;;;22.26;86.37;100905.81;10517965;28;20036;-83
2022/07/21 10:37:38;;;;;;;12.40;8.75;;;;;;;22.18;86.24;100862.50;10515824;28;20308;-83
2022/07/21 10:42:39;;;;;;;11.48;8.05;;;;;;;22.32;86.01;100919.00;10511847;28;20041;-83
2022/07/21 10:47:41;;;;;;;12.13;8.00;;;;;;;22.32;85.82;100923.47;10492439;28;20533;-82
2022/07/21 10:52:49;;;;;;;15.32;8.32;;;;;;;22.54;85.49;101017.94;10512751;28;20036;-81
2022/07/21 10:58:23;;;;;;;14.68;8.70;;;;;;;23.24;85.42;101323.06;10521909;28;20135;-81
2022/07/21 11:03:30;;;;;;;12.10;8.50;;;;;;;23.11;85.15;101251.28;10519439;28;20096;-81
2022/07/21 11:08:34;;;;;;;9.18;6.47;;;;;;;23.10;84.96;101233.53;10512090;28;20105;-81
2022/07/21 11:14:08;;;;;;;12.85;6.97;;;;;;;22.87;84.51;101121.13;10500440;28;20075;-80
2022/07/21 11:19:45;;;;;;;12.25;7.20;;;;;;;22.95;84.24;101148.47;10471764;28;20414;-80
2022/07/21 11:25:02;;;;;;;8.70;6.05;;;;;;;22.74;84.08;101054.75;10511135;28;20040;-80
2022/07/21 11:30:07;;;;;;;12.65;7.10;;;;;;;22.66;83.46;101008.72;10521450;28;20508;-79
2022/07/21 11:35:12;;;;;;;11.68;7.43;;;;;;;22.80;83.24;101063.47;10477030;28;20059;-82
2022/07/21 11:40:19;;;;;;;9.10;6.55;;;;;;;22.99;82.87;101144.78;10519101;28;20118;-79
2022/07/21 11:45:25;;;;;;;12.73;7.10;;;;;;;22.89;82.52;101085.44;10482275;28;20051;-79
2022/07/21 11:50:32;;;;;;;12.27;7.25;;;;;;;22.89;82.29;101077.41;10512780;28;20056;-80
2022/07/21 11:55:34;;;;;;;11.52;7.28;;;;;;;22.95;82.20;101089.72;10465505;28;20056;-80
2022/07/21 12:00:36;;;;;;;13.88;7.63;;;;;;;22.93;81.98;101080.88;10502395;28;20044;-78
2022/07/21 12:05:39;;;;;;;10.88;6.90;;;;;;;23.02;81.27;101115.31;10489464;28;20416;-79
2022/07/21 12:10:40;;;;;;;15.30;8.65;;;;;;;23.05;80.93;101109.03;10506748;28;20497;-77
2022/07/21 12:15:42;;;;;;;12.77;8.45;;;;;;;23.11;80.85;101141.78;10506043;28;20119;-80
2022/07/21 12:20:44;;;;;;;15.30;9.57;;;;;;;23.01;80.54;101078.00;10486439;28;20094;-78
2022/07/21 12:25:55;;;;;;;13.18;9.55;;;;;;;22.99;80.14;101066.50;10512899;28;20051;-79
2022/07/21 12:30:57;;;;;;;15.38;8.43;;;;;;;23.03;79.95;101081.47;10510406;28;20086;-79
2022/07/21 12:36:05;;;;;;;12.27;8.18;;;;;;;23.14;79.64;101121.28;10502752;28;20047;-79
2022/07/21 12:41:14;;;;;;;12.18;7.22;;;;;;;23.36;79.42;101201.63;10515741;28;20117;-79
2022/07/21 12:46:33;;;;;;;9.63;6.68;;;;;;;23.51;78.80;101259.06;10505617;28;20683;-78
2022/07/21 12:51:35;;;;;;;12.55;7.28;;;;;;;23.57;78.84;101285.63;10483619;28;20043;-78
2022/07/21 12:56:37;;;;;;;12.45;8.45;;;;;;;23.45;78.46;101220.94;10509067;28;20134;-78
2022/07/21 13:01:38;;;;;;;14.38;8.43;;;;;;;23.47;78.02;101223.56;10498034;28;20113;-78
2022/07/21 13:06:40;;;;;;;12.13;7.80;;;;;;;23.58;78.23;101258.00;10514458;28;20549;-79
2022/07/21 13:11:42;;;;;;;10.15;6.47;;;;;;;23.17;77.50;101073.97;10505351;28;20823;-78
2022/07/21 13:16:43;;;;;;;11.60;8.10;;;;;;;22.80;77.27;100908.66;10512519;28;20041;-79
2022/07/21 13:21:45;;;;;;;12.00;7.35;;;;;;;22.68;76.98;100840.53;10477681;28;20040;-78
2022/07/21 13:26:47;;;;;;;13.30;8.27;;;;;;;22.43;76.89;100739.97;10504529;28;20071;-78
2022/07/21 13:31:48;;;;;;;13.10;8.80;;;;;;;22.21;76.82;100641.06;10512386;28;20060;-78
2022/07/21 13:36:50;;;;;;;13.30;9.65;;;;;;;22.06;76.59;100576.66;10505190;28;20043;-77
2022/07/21 13:41:57;;;;;;;14.98;10.18;;;;;;;21.94;76.46;100529.09;10523131;28;20079;-78
2022/07/21 13:47:18;;;;;;;15.45;9.95;;;;;;;21.90;76.60;100511.47;10491217;28;20242;-79
2022/07/21 13:52:20;;;;;;;15.80;10.93;;;;;;;21.87;76.56;100503.56;10525038;28;20044;-79
2022/07/21 13:57:25;;;;;;;18.40;11.50;;;;;;;21.71;76.45;100450.81;10499758;28;20552;-80
2022/07/21 14:02:27;;;;;;;18.90;13.82;;;;;;;21.64;76.83;100413.78;10487536;28;20127;-80
2022/07/21 14:07:29;;;;;;;21.88;14.35;;;;;;;21.49;76.69;100352.09;10492247;28;20060;-76
2022/07/21 14:12:31;;;;;;;23.13;14.27;;;;;;;21.46;76.73;100340.69;10503158;28;20040;-76
2022/07/21 14:17:33;;;;;;;22.67;14.32;;;;;;;21.61;76.66;100414.75;10495364;28;20104;-78
2022/07/21 14:22:34;;;;;;;23.98;15.40;;;;;;;21.72;76.83;100470.31;10519207;28;20071;-77
2022/07/21 14:27:36;;;;;;;20.55;15.02;;;;;;;21.69;76.93;100460.66;10502281;28;20047;-78
2022/07/21 14:32:39;;;;;;;19.80;13.95;;;;;;;21.80;76.97;100510.94;10506660;28;20075;-78
2022/07/21 14:37:43;;;;;;;20.27;13.77;;;;;;;21.79;76.99;100509.19;10510200;28;20051;-77
2022/07/21 14:42:46;;;;;;;21.65;15.70;;;;;;;21.67;77.06;100456.31;10522396;28;20130;-78
2022/07/21 14:47:53;;;;;;;26.08;16.77;;;;;;;21.48;77.14;100381.44;10508537;28;21682;-79
2022/07/21 14:52:55;;;;;;;19.33;12.77;;;;;;;21.15;77.25;100244.13;10506216;28;20200;-84
2022/07/21 14:57:57;;;;;;;19.45;11.95;;;;;;;20.74;77.34;100077.94;10509058;28;20433;-84
2022/07/21 15:02:59;;;;;;;17.70;11.35;;;;;;;20.47;77.46;99975.13;10482309;28;20063;-86
2022/07/21 15:08:02;;;;;;;14.50;9.82;;;;;;;20.37;77.42;99936.53;10481607;28;20528;-86
2022/07/21 15:13:09;;;;;;;20.65;10.32;;;;;;;20.23;77.83;99897.16;10506104;28;20037;-81
2022/07/21 15:18:12;;;;;;;14.73;11.07;;;;;;;20.19;77.92;99884.94;10491305;28;20076;-81
2022/07/21 15:23:14;;;;;;;20.13;12.25;;;;;;;20.39;78.15;99973.72;10510468;28;20048;-81
2022/07/21 15:28:16;;;;;;;17.85;11.82;;;;;;;20.59;78.13;100077.53;10513717;28;20048;-82
2022/07/21 15:33:17;;;;;;;16.05;11.50;;;;;;;20.67;78.42;100114.53;10501105;28;20549;-82
2022/07/21 15:38:21;;;;;;;18.88;12.85;;;;;;;20.59;78.72;100084.66;10520694;28;20055;-83
2022/07/21 15:43:23;;;;;;;18.20;11.93;;;;;;;20.55;78.87;100081.25;10499747;28;20071;-82
2022/07/21 15:48:30;;;;;;;20.05;13.02;;;;;;;20.29;79.09;99978.47;10523681;28;20131;-82
2022/07/21 15:53:36;;;;;;;16.83;10.73;;;;;;;20.07;78.94;99896.88;10472077;28;20074;-82
2022/07/21 15:59:33;;;;;;;19.83;11.93;;;;;;;20.07;79.47;99901.28;10510953;28;20070;-82
2022/07/21 16:03:59;;;;;;;20.00;11.82;;;;;;;20.44;79.59;100070.09;10508256;28;20067;-81
2022/07/21 16:09:01;;;;;;;18.05;11.38;;;;;;;20.89;79.74;100273.44;10521342;28;20142;-81
2022/07/21 16:14:03;;;;;;;16.80;12.32;;;;;;;21.39;80.29;100490.94;10522899;28;20083;-82
2022/07/21 16:19:13;;;;;;;18.75;12.23;;;;;;;21.53;80.20;100555.34;10508142;28;20051;-82
2022/07/21 16:24:16;;;;;;;16.08;11.10;;;;;;;21.68;80.28;100634.78;10503381;28;20050;-82
2022/07/21 16:29:19;;;;;;;18.58;12.93;;;;;;;22.09;80.39;100809.47;10514994;28;20041;-82
2022/07/21 16:34:20;;;;;;;11.32;5.80;;;;;;;21.62;80.57;100613.66;10506278;28;20048;-82
2022/07/21 16:39:22;;;;;;;11.45;6.85;;;;;;;21.34;80.69;100486.63;10520217;28;20055;-82
2022/07/21 16:44:24;;;;;;;15.73;6.63;;;;;;;21.09;80.73;100389.84;10488613;28;20107;-82
2022/07/21 16:49:25;;;;;;;13.05;8.23;;;;;;;21.01;80.90;100356.38;10511348;28;20074;-81
2022/07/21 16:54:27;;;;;;;12.48;8.57;;;;;;;20.89;80.82;100314.19;10518179;28;20067;-82
2022/07/21 16:59:29;;;;;;;13.80;7.95;;;;;;;20.73;80.99;100246.47;10517282;28;20203;-82
2022/07/21 17:04:30;;;;;;;15.10;9.10;;;;;;;20.44;81.07;100125.94;10515413;28;20464;-83
2022/07/21 17:09:32;;;;;;;13.63;9.38;;;;;;;20.12;81.39;99995.03;10509149;28;20131;-81
2022/07/21 17:14:34;;;;;;;16.33;10.55;;;;;;;19.95;81.35;99938.03;10506883;28;20130;-82
2022/07/21 17:19:36;;;;;;;30.30;11.68;;;;;;;19.88;81.58;99917.91;10513064;28;20134;-85
2022/07/21 17:24:37;;;;;;;17.08;11.65;;;;;;;19.81;81.47;99889.81;10501079;28;20130;-93
2022/07/21 17:29:45;;;;;;;19.38;13.27;;;;;;;19.74;81.75;99869.66;10497642;28;20089;-91
2022/07/21 17:34:47;;;;;;;19.70;13.80;;;;;;;19.70;82.01;99862.75;10467142;28;20082;-87
2022/07/21 17:39:49;;;;;;;20.58;13.40;;;;;;;19.62;82.26;99828.47;10499031;28;20044;-85
2022/07/21 17:44:51;;;;;;;20.48;14.15;;;;;;;19.56;82.18;99820.72;10491439;28;20048;-85
2022/07/21 17:49:53;;;;;;;25.27;16.02;;;;;;;19.59;82.35;99840.09;10500375;28;20789;-85
2022/07/21 17:54:55;;;;;;;22.73;15.63;;;;;;;19.65;82.74;99873.53;10493804;28;20052;-84
2022/07/21 17:59:56;;;;;;;23.05;15.38;;;;;;;19.66;82.92;99869.09;10488788;28;20043;-85
2022/07/21 18:04:59;;;;;;;21.85;15.68;;;;;;;19.64;83.10;99886.88;10489655;28;20072;-85
2022/07/21 18:10:14;;;;;;;20.42;14.45;;;;;;;19.54;83.00;99852.66;10458477;28;20037;-86
2022/07/21 18:15:17;;;;;;;22.05;14.70;;;;;;;19.53;83.47;99858.91;10473896;28;20056;-86
2022/07/21 18:20:18;;;;;;;27.58;16.13;;;;;;;19.57;83.53;99878.22;10509750;28;20139;-86
2022/07/21 18:25:20;;;;;;;23.45;15.02;;;;;;;19.56;83.91;99879.16;10512032;28;20071;-85
2022/07/21 18:30:22;;;;;;;25.27;16.33;;;;;;;19.52;84.08;99869.56;10492967;28;20497;-89
2022/07/21 18:35:24;;;;;;;21.83;16.25;;;;;;;19.43;83.92;99842.41;10502448;28;20466;-89
2022/07/21 18:40:51;;;;;;;27.73;16.38;;;;;;;19.36;84.32;99816.13;10489613;28;20049;-92
2022/07/21 18:46:00;;;;;;;23.05;16.35;;;;;;;19.40;84.29;99849.63;10490669;28;20040;-87
2022/07/21 18:51:03;;;;;;;26.92;16.33;;;;;;;19.42;84.76;99859.25;10489963;28;20132;-86
2022/07/21 18:56:05;;;;;;;25.95;16.55;;;;;;;19.42;85.10;99877.81;10509361;28;20091;-86
2022/07/21 19:01:07;;;;;;;24.73;17.33;;;;;;;19.41;84.85;99877.88;10499501;28;20045;-85
2022/07/21 19:06:09;;;;;;;25.35;16.67;;;;;;;19.36;85.31;99869.22;10482333;28;20068;-85
2022/07/21 19:11:10;;;;;;;23.45;16.45;;;;;;;19.33;85.31;99853.41;10503371;28;20470;-84
2022/07/21 19:16:12;;;;;;;28.65;17.58;;;;;;;19.28;85.66;99840.28;10506741;28;20098;-84
2022/07/21 19:21:15;;;;;;;26.50;17.45;;;;;;;19.28;85.58;99845.59;10507275;28;20044;-85
2022/07/21 19:26:18;;;;;;;26.92;16.73;;;;;;;19.32;85.93;99879.09;10481985;28;20036;-85
2022/07/21 19:31:22;;;;;;;24.27;16.30;;;;;;;19.32;86.20;99876.44;10495394;28;20413;-86
2022/07/21 19:36:24;;;;;;;29.65;17.95;;;;;;;19.29;86.29;99873.88;10498433;28;20052;-83
2022/07/21 19:41:27;;;;;;;23.65;16.83;;;;;;;19.25;86.48;99873.09;10474893;28;20052;-84
2022/07/21 19:46:28;;;;;;;26.98;17.33;;;;;;;19.22;86.57;99870.53;10509173;28;20131;-84
2022/07/21 19:51:30;;;;;;;26.05;17.50;;;;;;;19.21;86.50;99854.69;10504078;28;20055;-85
2022/07/21 19:56:32;;;;;;;26.77;18.05;;;;;;;19.14;86.73;99842.53;10512049;28;20075;-85
2022/07/21 20:01:35;;;;;;;25.83;17.50;;;;;;;19.16;86.97;99856.63;10485218;28;20048;-86
2022/07/21 20:06:37;;;;;;;28.27;19.02;;;;;;;19.11;87.10;99843.53;10484831;28;20531;-85
2022/07/21 20:11:39;;;;;;;28.77;19.45;;;;;;;19.06;87.16;99832.19;10479659;28;20090;-86
2022/07/21 20:17:21;;;;;;;28.63;18.65;;;;;;;18.99;87.60;99812.97;10475146;28;20044;-90
2022/07/21 20:22:58;;;;;;;;;;;;;;;;;;;;;
2022/07/21 20:28:47;;;;;;;;;;;;;;;;;;;;;
2022/07/21 20:33:59;;;;;;;31.02;18.65;;;;;;;18.58;87.98;99653.41;10477384;28;20135;-88
2022/07/21 20:39:14;;;;;;;27.45;17.42;;;;;;;18.53;87.98;99639.44;10485599;28;20412;-87
2022/07/21 20:44:31;;;;;;;26.23;17.40;;;;;;;18.49;88.19;99641.31;10483315;28;20048;-88
2022/07/21 20:49:32;;;;;;;22.23;14.60;;;;;;;18.36;88.50;99576.44;10475988;28;20083;-87
2022/07/21 20:54:34;;;;;;;22.38;15.40;;;;;;;18.33;88.53;99580.03;10472131;28;20051;-86
2022/07/21 20:59:36;;;;;;;18.23;13.48;;;;;;;18.24;88.50;99542.38;10505826;28;20105;-85
2022/07/21 21:04:41;;;;;;;20.20;13.32;;;;;;;18.16;88.64;99522.31;10457117;28;20683;-86
2022/07/21 21:09:43;;;;;;;20.48;13.98;;;;;;;18.19;88.71;99535.47;10466718;28;20155;-85
2022/07/21 21:14:47;;;;;;;23.90;13.95;;;;;;;18.16;89.00;99534.69;10495245;28;20036;-86
2022/07/21 21:19:53;;;;;;;19.80;12.47;;;;;;;18.14;89.13;99524.16;10488949;28;20080;-86
2022/07/21 21:24:58;;;;;;;19.65;10.85;;;;;;;17.97;89.12;99455.00;10483112;28;20044;-86
2022/07/21 21:30:00;;;;;;;15.93;6.75;;;;;;;17.73;89.00;99378.13;10478628;28;20041;-85
2022/07/21 21:35:04;;;;;;;14.07;6.05;;;;;;;17.41;89.43;99239.84;10488806;28;20086;-85
2022/07/21 21:40:08;;;;;;;10.85;4.28;;;;;;;17.26;89.14;99179.56;10492482;28;20056;-86
2022/07/21 21:45:10;;;;;;;9.23;3.80;;;;;;;17.05;89.25;99096.56;10475568;28;20709;-86
2022/07/21 21:50:12;;;;;;;;;;;;;;;16.84;89.51;99016.22;10496737;28;20808;-85
2022/07/21 21:55:14;;;;;;;9.68;3.30;;;;;;;16.73;89.68;98977.84;10507871;28;19928;-86
2022/07/21 22:00:16;;;;;;;9.10;3.58;;;;;;;16.63;89.61;98944.75;10508979;28;20074;-84
2022/07/21 22:05:18;;;;;;;7.43;2.53;;;;;;;16.57;89.71;98921.19;10512228;28;20094;-84
2022/07/21 22:10:19;;;;;;;11.15;3.00;;;;;;;16.53;89.64;98911.66;10513862;28;20151;-84
2022/07/21 22:15:21;;;;;;;6.25;2.30;;;;;;;16.51;89.51;98911.72;10511728;28;20068;-84
2022/07/21 22:20:23;;;;;;;5.57;2.22;;;;;;;16.47;89.91;98901.31;10489167;28;20049;-85
2022/07/21 22:25:28;;;;;;;5.47;2.10;;;;;;;16.34;89.78;98859.53;10504582;28;20595;-85
2022/07/21 22:30:30;;;;;;;4.15;1.83;;;;;;;16.25;89.97;98823.75;10503452;28;20119;-84
2022/07/21 22:35:32;;;;;;;7.97;1.88;;;;;;;16.19;89.90;98802.84;10514723;28;20048;-83
2022/07/21 22:40:33;;;;;;;5.97;2.08;;;;;;;16.17;90.02;98810.00;10489554;28;20730;-83
2022/07/21 22:45:35;;;;;;;4.20;1.90;;;;;;;16.20;90.10;98816.94;10484815;28;20132;-83
2022/07/21 22:50:37;;;;;;;6.53;2.05;;;;;;;16.23;90.36;98843.22;10496186;28;20045;-83
2022/07/21 22:55:39;;;;;;;5.57;2.03;;;;;;;16.23;90.05;98851.16;10509512;28;20098;-83
2022/07/21 23:00:40;;;;;;;3.85;1.90;;;;;;;16.16;90.08;98815.31;10513439;28;20485;-84
2022/07/21 23:05:42;;;;;;;9.27;2.47;;;;;;;16.14;89.98;98818.03;10486416;28;20041;-83
2022/07/21 23:10:45;;;;;;;7.75;2.20;;;;;;;16.11;90.45;98818.13;10486737;28;20075;-84
2022/07/21 23:15:47;;;;;;;6.10;1.92;;;;;;;16.06;90.17;98801.59;10507261;28;20051;-84
2022/07/21 23:20:49;;;;;;;4.90;1.83;;;;;;;16.02;90.32;98786.81;10495516;28;20051;-84